createdAt,value
2018-03-26T00:01:33.738Z,19.53
2018-03-26T00:04:01.342Z,19.83
2018-03-26T00:06:29.676Z,20.17
2018-03-26T00:08:57.208Z,19.87
2018-03-26T00:11:24.778Z,19.00
2018-03-26T00:13:52.432Z,20.30
2018-03-26T00:16:19.992Z,19.90
2018-03-26T00:18:47.546Z,19.40
2018-03-26T00:21:15.120Z,19.20
2018-03-26T00:23:42.683Z,19.87
2018-03-26T00:26:10.225Z,18.87
2018-03-26T00:28:37.780Z,18.47
2018-03-26T00:31:05.323Z,17.17
2018-03-26T00:33:33.637Z,17.93
2018-03-26T00:36:01.175Z,18.70
2018-03-26T00:38:28.731Z,19.00
2018-03-26T00:40:56.281Z,18.43
2018-03-26T00:43:24.612Z,18.10
2018-03-26T00:45:52.145Z,19.17
2018-03-26T00:48:19.704Z,19.00
2018-03-26T00:50:47.273Z,18.87
2018-03-26T00:56:21.271Z,18.37
2018-03-26T00:58:48.827Z,19.70
2018-03-26T01:01:17.157Z,19.10
2018-03-26T01:03:44.706Z,17.83
2018-03-26T01:06:12.299Z,17.30
2018-03-26T01:08:39.845Z,18.40
2018-03-26T01:11:07.450Z,17.73
2018-03-26T01:13:34.965Z,17.43
2018-03-26T01:16:03.519Z,18.80
2018-03-26T01:18:31.059Z,17.80
2018-03-26T01:20:58.634Z,18.07
2018-03-26T01:23:26.163Z,17.10
2018-03-26T01:25:53.705Z,17.93
2018-03-26T01:28:21.284Z,16.80
2018-03-26T01:30:49.600Z,17.37
2018-03-26T01:33:17.164Z,17.63
2018-03-26T01:35:45.655Z,17.17
2018-03-26T01:38:13.210Z,18.53
2018-03-26T01:40:40.747Z,18.10
2018-03-26T01:43:08.305Z,17.67
2018-03-26T01:45:35.851Z,18.47
2018-03-26T01:48:03.430Z,18.33
2018-03-26T01:50:30.962Z,17.07
2018-03-26T01:52:58.526Z,18.27
2018-03-26T01:55:26.611Z,17.80
2018-03-26T01:57:54.175Z,18.83
2018-03-26T02:00:23.671Z,16.83
2018-03-26T02:02:51.213Z,17.13
2018-03-26T02:05:18.790Z,17.17
2018-03-26T02:07:47.123Z,17.23
2018-03-26T02:10:14.677Z,18.27
2018-03-26T02:12:42.245Z,17.90
2018-03-26T02:15:09.800Z,18.13
2018-03-26T02:17:37.341Z,17.83
2018-03-26T02:20:04.945Z,16.90
2018-03-26T02:22:32.505Z,16.77
2018-03-26T02:25:00.059Z,15.33
2018-03-26T02:27:27.598Z,16.50
2018-03-26T02:29:55.258Z,16.90
2018-03-26T02:32:22.793Z,17.17
2018-03-26T02:34:50.375Z,17.03
2018-03-26T02:37:17.931Z,16.53
2018-03-26T02:39:45.484Z,17.13
2018-03-26T02:42:13.040Z,16.97
2018-03-26T02:44:40.606Z,16.67
2018-03-26T02:47:08.170Z,16.57
2018-03-26T02:49:35.737Z,17.27
2018-03-26T02:52:03.291Z,16.50
2018-03-26T02:54:30.843Z,17.63
2018-03-26T02:56:58.411Z,15.90
2018-03-26T02:59:25.943Z,17.47
2018-03-26T03:01:54.275Z,18.70
2018-03-26T03:04:21.810Z,18.17
2018-03-26T03:06:49.399Z,18.77
2018-03-26T03:09:16.932Z,19.97
2018-03-26T03:11:44.473Z,18.40
2018-03-26T03:14:12.839Z,20.10
2018-03-26T03:16:41.146Z,19.50
2018-03-26T03:19:09.625Z,19.43
2018-03-26T03:21:37.167Z,19.30
2018-03-26T03:24:04.746Z,20.13
2018-03-26T03:26:33.058Z,19.33
2018-03-26T03:29:00.618Z,19.30
2018-03-26T03:31:28.930Z,19.20
2018-03-26T03:33:57.269Z,18.47
2018-03-26T03:36:24.807Z,18.77
2018-03-26T03:38:52.379Z,18.20
2018-03-26T03:41:19.923Z,20.83
2018-03-26T03:43:47.517Z,18.80
2018-03-26T03:46:15.123Z,19.03
2018-03-26T03:48:43.431Z,19.47
2018-03-26T03:51:10.991Z,18.40
2018-03-26T03:53:39.451Z,18.87
2018-03-26T03:56:07.030Z,19.93
2018-03-26T03:58:34.584Z,18.50
2018-03-26T04:01:02.165Z,19.73
2018-03-26T04:03:29.709Z,19.77
2018-03-26T04:05:57.266Z,19.17
2018-03-26T04:08:24.826Z,18.73
2018-03-26T04:10:52.387Z,19.67
2018-03-26T04:13:19.935Z,18.97
2018-03-26T04:15:48.299Z,19.57
2018-03-26T04:18:16.609Z,19.73
2018-03-26T04:20:44.155Z,19.40
2018-03-26T04:23:11.748Z,19.83
2018-03-26T04:25:39.293Z,20.70
2018-03-26T04:28:06.859Z,19.53
2018-03-26T04:30:35.310Z,20.27
2018-03-26T04:33:03.655Z,20.37
2018-03-26T04:35:31.186Z,21.07
2018-03-26T04:37:58.847Z,21.57
2018-03-26T04:40:26.398Z,19.77
2018-03-26T04:42:53.956Z,20.97
2018-03-26T04:45:21.482Z,19.83
2018-03-26T04:47:49.042Z,21.00
2018-03-26T04:50:16.597Z,21.33
2018-03-26T04:52:44.967Z,22.23
2018-03-26T04:55:12.514Z,21.23
2018-03-26T04:57:40.059Z,21.30
2018-03-26T05:00:07.624Z,19.03
2018-03-26T05:02:35.177Z,20.53
2018-03-26T05:05:02.835Z,20.30
2018-03-26T05:07:30.379Z,21.00
2018-03-26T05:09:57.938Z,20.83
2018-03-26T05:12:25.481Z,19.73
2018-03-26T05:14:53.832Z,21.53
2018-03-26T05:17:22.414Z,20.47
2018-03-26T05:19:50.005Z,20.90
2018-03-26T05:22:18.318Z,20.30
2018-03-26T05:24:45.880Z,20.57
2018-03-26T05:27:13.435Z,22.23
2018-03-26T05:29:41.024Z,22.00
2018-03-26T05:32:08.560Z,22.20
2018-03-26T05:34:36.157Z,21.93
2018-03-26T05:37:03.686Z,23.20
2018-03-26T05:39:31.229Z,21.73
2018-03-26T05:41:58.786Z,23.17
2018-03-26T05:44:26.384Z,21.43
2018-03-26T05:46:53.962Z,21.47
2018-03-26T05:49:21.510Z,21.13
2018-03-26T05:51:49.063Z,21.47
2018-03-26T05:54:17.632Z,21.23
2018-03-26T05:56:45.193Z,21.67
2018-03-26T05:59:13.739Z,21.67
2018-03-26T06:01:42.094Z,21.63
2018-03-26T06:04:09.633Z,21.70
2018-03-26T06:06:37.181Z,24.00
2018-03-26T06:09:04.745Z,21.47
2018-03-26T06:11:32.288Z,22.00
2018-03-26T06:13:59.845Z,21.00
2018-03-26T06:16:27.399Z,21.63
2018-03-26T06:18:54.963Z,21.00
2018-03-26T06:21:22.518Z,19.70
2018-03-26T06:23:50.095Z,20.60
2018-03-26T06:26:17.635Z,19.73
2018-03-26T06:28:45.213Z,20.97
2018-03-26T06:31:12.757Z,19.37
2018-03-26T06:33:40.378Z,19.47
2018-03-26T06:36:13.443Z,20.07
2018-03-26T06:38:44.896Z,20.07
2018-03-26T06:41:12.480Z,20.93
2018-03-26T06:43:40.841Z,21.23
2018-03-26T06:46:08.448Z,22.27
2018-03-26T06:48:36.054Z,20.80
2018-03-26T06:51:03.637Z,21.03
2018-03-26T06:53:31.179Z,22.90
2018-03-26T06:55:58.777Z,21.73
2018-03-26T06:58:27.157Z,21.77
2018-03-26T07:00:55.478Z,19.67
2018-03-26T07:03:23.102Z,20.87
2018-03-26T07:05:50.684Z,19.77
2018-03-26T07:08:18.236Z,17.47
2018-03-26T07:10:45.824Z,19.43
2018-03-26T07:13:13.425Z,17.50
2018-03-26T07:15:40.983Z,17.93
2018-03-26T07:18:08.536Z,16.93
2018-03-26T07:20:36.082Z,17.30
2018-03-26T07:23:03.647Z,16.83
2018-03-26T07:25:31.194Z,16.60
2018-03-26T07:27:58.782Z,15.87
2018-03-26T07:30:26.358Z,15.83
2018-03-26T07:32:54.706Z,15.47
2018-03-26T07:35:22.291Z,15.83
2018-03-26T07:37:49.903Z,16.83
2018-03-26T07:40:17.458Z,16.53
2018-03-26T07:42:45.935Z,17.83
2018-03-26T07:45:13.478Z,16.00
2018-03-26T07:47:41.809Z,16.77
2018-03-26T07:50:09.370Z,16.37
2018-03-26T07:52:37.054Z,16.63
2018-03-26T07:55:04.588Z,17.90
2018-03-26T07:57:32.145Z,16.53
2018-03-26T07:59:59.704Z,17.10
2018-03-26T08:02:27.242Z,17.70
2018-03-26T08:04:54.886Z,17.27
2018-03-26T08:07:22.434Z,17.27
2018-03-26T08:09:50.029Z,17.93
2018-03-26T08:12:18.472Z,17.80
2018-03-26T08:14:46.030Z,19.43
2018-03-26T08:17:14.432Z,19.07
2018-03-26T08:19:41.976Z,18.10
2018-03-26T08:22:09.514Z,19.17
2018-03-26T08:24:37.055Z,16.63
2018-03-26T08:27:04.613Z,17.77
2018-03-26T08:29:33.158Z,17.37
2018-03-26T08:32:00.683Z,18.33
2018-03-26T08:34:28.989Z,18.47
2018-03-26T08:36:57.714Z,17.53
2018-03-26T08:39:25.291Z,18.20
2018-03-26T08:41:52.850Z,18.83
2018-03-26T08:44:20.421Z,19.17
2018-03-26T08:46:48.004Z,16.60
2018-03-26T08:49:16.316Z,17.77
2018-03-26T08:51:43.902Z,18.27
2018-03-26T08:54:11.454Z,19.93
2018-03-26T08:56:39.007Z,19.43
2018-03-26T08:59:06.557Z,18.87
2018-03-26T09:01:34.139Z,19.70
2018-03-26T09:04:01.674Z,19.53
2018-03-26T09:06:29.259Z,19.70
2018-03-26T09:08:56.802Z,18.10
2018-03-26T09:11:24.576Z,19.87
2018-03-26T09:13:52.139Z,19.43
2018-03-26T09:16:19.697Z,20.73
2018-03-26T09:18:48.259Z,21.30
2018-03-26T09:21:15.797Z,22.23
2018-03-26T09:23:44.220Z,21.43
2018-03-26T09:26:12.765Z,21.97
2018-03-26T09:28:40.357Z,21.77
2018-03-26T09:31:07.922Z,22.77
2018-03-26T09:33:35.533Z,22.67
2018-03-26T09:36:03.088Z,22.13
2018-03-26T09:38:30.662Z,22.27
2018-03-26T09:40:58.988Z,22.83
2018-03-26T09:43:26.576Z,23.90
2018-03-26T09:45:54.129Z,23.07
2018-03-26T09:48:22.645Z,23.77
2018-03-26T09:50:50.975Z,23.57
2018-03-26T09:53:18.553Z,25.27
2018-03-26T09:55:46.106Z,24.87
2018-03-26T09:58:13.742Z,24.50
2018-03-26T10:00:46.941Z,25.10
2018-03-26T10:03:15.487Z,23.57
2018-03-26T10:05:43.825Z,25.23
2018-03-26T10:08:11.392Z,24.70
2018-03-26T10:10:39.921Z,24.73
2018-03-26T10:13:07.471Z,24.43
2018-03-26T10:15:35.044Z,24.83
2018-03-26T10:18:02.605Z,25.60
2018-03-26T10:20:30.169Z,25.00
2018-03-26T10:22:57.758Z,24.87
2018-03-26T10:25:25.684Z,26.17
2018-03-26T10:27:54.014Z,27.07
2018-03-26T10:30:21.592Z,28.70
2018-03-26T10:32:49.180Z,29.30
2018-03-26T10:35:17.473Z,27.40
2018-03-26T10:37:45.033Z,28.23
2018-03-26T10:40:12.565Z,26.77
2018-03-26T10:42:40.990Z,26.50
2018-03-26T10:45:08.537Z,25.13
2018-03-26T10:47:36.114Z,26.13
2018-03-26T10:50:04.679Z,25.47
2018-03-26T10:52:33.265Z,26.43
2018-03-26T10:55:00.805Z,26.20
2018-03-26T10:57:29.133Z,24.20
2018-03-26T10:59:56.713Z,24.50
2018-03-26T11:02:24.316Z,26.40
2018-03-26T11:04:51.869Z,25.47
2018-03-26T11:07:20.190Z,25.47
2018-03-26T11:09:47.751Z,26.07
2018-03-26T11:12:16.293Z,25.90
2018-03-26T11:14:43.866Z,25.30
2018-03-26T11:17:11.398Z,24.60
2018-03-26T11:19:39.715Z,24.13
2018-03-26T11:22:07.265Z,25.83
2018-03-26T11:24:34.830Z,25.10
2018-03-26T11:27:02.375Z,23.47
2018-03-26T11:29:29.941Z,23.37
2018-03-26T11:31:57.494Z,21.43
2018-03-26T11:34:25.065Z,21.03
2018-03-26T11:36:52.611Z,18.53
2018-03-26T11:39:20.166Z,17.77
2018-03-26T11:41:48.549Z,18.37
2018-03-26T11:44:16.050Z,18.20
2018-03-26T11:46:43.611Z,17.50
2018-03-26T11:49:11.150Z,18.20
2018-03-26T11:51:38.708Z,16.50
2018-03-26T11:54:06.252Z,16.73
2018-03-26T11:56:33.809Z,16.97
2018-03-26T11:59:02.100Z,15.20
2018-03-26T12:01:29.654Z,15.57
2018-03-26T12:03:57.209Z,16.47
2018-03-26T12:06:24.778Z,16.53
2018-03-26T12:08:52.335Z,16.13
2018-03-26T12:11:19.904Z,16.17
2018-03-26T12:13:47.446Z,15.73
2018-03-26T12:16:15.013Z,14.57
2018-03-26T12:18:42.551Z,14.17
2018-03-26T12:21:10.859Z,14.57
2018-03-26T12:23:50.173Z,14.90
2018-03-26T12:26:18.530Z,14.63
2018-03-26T12:28:57.942Z,15.40
2018-03-26T12:31:25.519Z,15.73
2018-03-26T12:34:05.083Z,16.70
2018-03-26T12:36:33.397Z,15.93
2018-03-26T12:39:00.930Z,17.00
2018-03-26T12:41:29.262Z,17.03
2018-03-26T12:43:57.565Z,16.60
2018-03-26T12:46:36.936Z,17.43
2018-03-26T12:49:05.239Z,18.27
2018-03-26T12:51:45.734Z,17.80
2018-03-26T12:54:13.275Z,17.87
2018-03-26T12:56:40.826Z,19.73
2018-03-26T12:59:08.375Z,18.47
2018-03-26T13:01:47.872Z,18.97
2018-03-26T13:04:16.186Z,18.43
2018-03-26T13:06:43.774Z,18.37
2018-03-26T13:09:11.342Z,18.70
2018-03-26T13:11:38.892Z,19.00
2018-03-26T13:14:06.451Z,18.43
2018-03-26T13:16:34.064Z,19.37
2018-03-26T13:19:01.614Z,18.90
2018-03-26T13:21:29.165Z,18.90
2018-03-26T13:23:56.728Z,20.50
2018-03-26T13:26:24.286Z,20.47
2018-03-26T13:28:51.833Z,22.20
2018-03-26T13:31:19.404Z,20.87
2018-03-26T13:33:47.798Z,20.37
2018-03-26T13:36:15.344Z,23.03
2018-03-26T13:38:42.907Z,21.67
2018-03-26T13:41:10.544Z,20.67
2018-03-26T13:43:38.080Z,20.53
2018-03-26T13:46:05.652Z,22.53
2018-03-26T13:48:33.198Z,20.17
2018-03-26T13:51:00.779Z,19.77
2018-03-26T13:53:28.356Z,19.77
2018-03-26T13:55:56.003Z,20.70
2018-03-26T13:58:23.568Z,19.47
2018-03-26T14:00:51.165Z,16.97
2018-03-26T14:03:18.710Z,18.70
2018-03-26T14:05:46.283Z,18.63
2018-03-26T14:08:25.598Z,18.83
2018-03-26T14:11:05.382Z,16.63
2018-03-26T14:13:45.631Z,16.53
2018-03-26T14:16:24.962Z,15.90
2018-03-26T14:18:52.502Z,15.73
2018-03-26T14:21:20.084Z,15.53
2018-03-26T14:23:47.705Z,13.97
2018-03-26T14:26:15.261Z,12.17
2018-03-26T14:28:42.828Z,11.03
2018-03-26T14:31:10.368Z,9.57
2018-03-26T14:33:37.949Z,8.90
2018-03-26T14:36:05.485Z,8.67
2018-03-26T14:38:33.046Z,8.23
2018-03-26T14:41:00.601Z,7.13
2018-03-26T14:43:28.170Z,6.97
2018-03-26T14:45:55.705Z,6.00
2018-03-26T14:48:24.023Z,6.43
2018-03-26T14:50:51.563Z,6.57
2018-03-26T14:53:19.122Z,6.40
2018-03-26T14:55:46.697Z,5.60
2018-03-26T14:58:14.261Z,5.60
2018-03-26T15:00:41.803Z,4.60
2018-03-26T15:03:09.357Z,5.27
2018-03-26T15:05:36.936Z,5.23
2018-03-26T15:08:04.468Z,5.37
2018-03-26T15:10:32.041Z,4.73
2018-03-26T15:12:59.573Z,4.23
2018-03-26T15:15:27.146Z,5.00
2018-03-26T15:17:54.696Z,5.03
2018-03-26T15:20:23.054Z,4.50
2018-03-26T15:22:50.620Z,5.37
2018-03-26T15:25:18.175Z,4.10
2018-03-26T15:27:45.716Z,4.13
2018-03-26T15:30:13.290Z,12.37
2018-03-26T15:32:41.619Z,4.87
2018-03-26T15:35:09.179Z,4.63
2018-03-26T15:37:36.722Z,4.77
2018-03-26T15:40:05.017Z,4.50
2018-03-26T15:42:32.563Z,4.63
2018-03-26T15:45:00.877Z,4.80
2018-03-26T15:47:28.472Z,5.20
2018-03-26T15:49:56.002Z,5.60
2018-03-26T15:52:23.561Z,4.53
2018-03-26T15:54:51.085Z,4.60
2018-03-26T15:57:18.642Z,4.90
2018-03-26T15:59:46.940Z,4.97
2018-03-26T16:02:14.021Z,5.97
2018-03-26T16:04:41.594Z,4.50
2018-03-26T16:07:09.161Z,3.90
2018-03-26T16:09:37.485Z,4.73
2018-03-26T16:12:05.066Z,4.57
2018-03-26T16:14:32.652Z,5.17
2018-03-26T16:17:00.186Z,5.07
2018-03-26T16:19:27.845Z,4.97
2018-03-26T16:21:55.402Z,4.70
2018-03-26T16:24:26.738Z,5.27
2018-03-26T16:26:54.300Z,5.27
2018-03-26T16:29:21.910Z,4.27
2018-03-26T16:31:49.521Z,4.33
2018-03-26T16:34:17.082Z,5.00
2018-03-26T16:36:44.628Z,4.70
2018-03-26T16:39:13.134Z,5.30
2018-03-26T16:41:48.491Z,5.00
2018-03-26T16:44:17.041Z,4.77
2018-03-26T16:46:45.350Z,5.13
2018-03-26T16:49:12.921Z,4.83
2018-03-26T16:51:40.451Z,5.33
2018-03-26T16:54:08.018Z,5.93
2018-03-26T16:56:35.577Z,4.97
2018-03-26T16:59:03.129Z,4.83
2018-03-26T17:01:30.673Z,4.80
2018-03-26T17:03:58.212Z,4.80
2018-03-26T17:06:25.775Z,5.07
2018-03-26T17:08:53.336Z,5.00
2018-03-26T17:11:20.908Z,4.33
2018-03-26T17:13:49.232Z,5.17
2018-03-26T17:16:16.808Z,4.77
2018-03-26T17:18:44.353Z,4.90
2018-03-26T17:21:11.910Z,4.27
2018-03-26T17:23:40.231Z,5.57
2018-03-26T17:26:08.694Z,4.30
2018-03-26T17:28:37.041Z,5.17
2018-03-26T17:31:04.594Z,4.67
2018-03-26T17:33:32.134Z,5.03
2018-03-26T17:36:00.491Z,5.20
2018-03-26T17:38:28.816Z,4.67
2018-03-26T17:40:56.369Z,5.33
2018-03-26T17:43:23.921Z,5.30
2018-03-26T17:45:51.464Z,5.20
2018-03-26T17:48:19.791Z,4.80
2018-03-26T17:50:47.334Z,5.00
2018-03-26T17:53:14.899Z,5.37
2018-03-26T17:55:42.435Z,5.33
2018-03-26T17:58:10.005Z,5.20
2018-03-26T18:00:37.668Z,5.43
2018-03-26T18:03:05.886Z,5.03
2018-03-26T18:05:33.582Z,4.73
2018-03-26T18:08:02.357Z,5.00
2018-03-26T18:10:29.916Z,4.97
2018-03-26T18:12:58.410Z,6.27
2018-03-26T18:15:26.144Z,5.00
2018-03-26T18:17:54.642Z,5.20
2018-03-26T18:20:23.014Z,6.10
2018-03-26T18:22:50.581Z,5.70
2018-03-26T18:25:18.657Z,5.70
2018-03-26T18:27:46.333Z,5.07
2018-03-26T18:30:14.039Z,5.83
2018-03-26T18:32:42.657Z,5.33
2018-03-26T18:35:11.206Z,5.50
2018-03-26T18:37:40.006Z,5.00
2018-03-26T18:40:09.804Z,5.23
2018-03-26T18:42:37.411Z,5.30
2018-03-26T18:45:06.493Z,5.70
2018-03-26T18:47:35.610Z,4.70
2018-03-26T18:50:05.620Z,5.60
2018-03-26T18:52:35.545Z,5.83
2018-03-26T18:55:03.923Z,4.67
2018-03-26T18:57:32.212Z,5.50
2018-03-26T19:00:01.847Z,5.33
2018-03-26T19:02:29.486Z,5.17
2018-03-26T19:05:04.973Z,5.60
2018-03-26T19:07:33.308Z,5.57
2018-03-26T19:10:01.712Z,5.60
2018-03-26T19:12:29.291Z,5.27
2018-03-26T19:14:56.850Z,5.43
2018-03-26T19:17:27.649Z,5.20
2018-03-26T19:19:55.246Z,5.13
2018-03-26T19:22:22.946Z,4.67
2018-03-26T19:24:51.267Z,4.80
2018-03-26T19:27:18.945Z,5.13
2018-03-26T19:29:47.210Z,4.17
2018-03-26T19:32:15.332Z,4.90
2018-03-26T19:34:43.918Z,4.70
2018-03-26T19:37:11.457Z,5.00
2018-03-26T19:39:39.025Z,4.93
2018-03-26T19:42:06.764Z,5.33
2018-03-26T19:44:34.435Z,4.50
2018-03-26T19:47:02.097Z,5.07
2018-03-26T19:49:29.763Z,4.17
2018-03-26T19:51:57.420Z,5.03
2018-03-26T19:54:26.042Z,4.40
2018-03-26T19:56:56.022Z,4.70
2018-03-26T19:59:23.616Z,4.50
2018-03-26T20:01:53.162Z,4.67
2018-03-26T20:04:21.002Z,4.60
2018-03-26T20:06:49.219Z,4.23
2018-03-26T20:09:19.153Z,4.23
2018-03-26T20:11:50.174Z,4.67
2018-03-26T20:14:19.757Z,4.93
2018-03-26T20:16:47.318Z,5.10
2018-03-26T20:19:16.724Z,5.10
2018-03-26T20:21:45.011Z,5.00
2018-03-26T20:24:13.339Z,4.90
2018-03-26T20:26:41.003Z,5.20
2018-03-26T20:29:09.669Z,4.33
2018-03-26T20:31:40.668Z,5.00
2018-03-26T20:34:09.002Z,4.57
2018-03-26T20:36:36.604Z,5.23
2018-03-26T20:39:05.050Z,5.30
2018-03-26T20:41:33.458Z,5.57
2018-03-26T20:44:01.993Z,4.63
2018-03-26T20:46:29.756Z,4.73
2018-03-26T20:48:58.748Z,4.70
2018-03-26T20:51:29.270Z,4.63
2018-03-26T20:53:56.877Z,4.87
2018-03-26T20:56:25.339Z,4.83
2018-03-26T20:58:54.443Z,5.00
2018-03-26T21:01:21.972Z,4.97
2018-03-26T21:03:49.550Z,5.37
2018-03-26T21:06:17.107Z,4.97
2018-03-26T21:08:44.682Z,5.50
2018-03-26T21:11:12.217Z,5.50
2018-03-26T21:13:39.756Z,5.20
2018-03-26T21:16:07.341Z,4.67
2018-03-26T21:18:34.905Z,4.77
2018-03-26T21:21:02.509Z,5.53
2018-03-26T21:23:30.125Z,5.63
2018-03-26T21:25:57.750Z,5.27
2018-03-26T21:28:26.108Z,4.43
2018-03-26T21:30:53.666Z,5.10
2018-03-26T21:33:21.204Z,5.07
2018-03-26T21:35:48.853Z,5.50
2018-03-26T21:38:16.390Z,4.93
2018-03-26T21:40:43.941Z,4.70
2018-03-26T21:43:11.514Z,4.80
2018-03-26T21:45:39.069Z,4.37
2018-03-26T21:48:06.650Z,5.23
2018-03-26T21:50:34.337Z,4.67
2018-03-26T21:53:01.902Z,4.73
2018-03-26T21:55:29.462Z,4.70
2018-03-26T21:57:57.025Z,4.70
2018-03-26T22:00:24.640Z,4.47
2018-03-26T22:02:52.232Z,5.43
2018-03-26T22:05:19.800Z,4.73
2018-03-26T22:07:47.363Z,4.90
2018-03-26T22:10:14.896Z,4.83
2018-03-26T22:12:42.455Z,5.27
2018-03-26T22:15:09.986Z,4.93
2018-03-26T22:17:37.569Z,5.07
2018-03-26T22:20:05.109Z,5.53
2018-03-26T22:22:32.667Z,4.80
2018-03-26T22:25:01.001Z,5.17
2018-03-26T22:27:28.541Z,5.23
2018-03-26T22:29:56.128Z,4.77
2018-03-26T22:32:23.666Z,5.30
2018-03-26T22:34:52.206Z,4.90
2018-03-26T22:37:20.568Z,5.27
2018-03-26T22:39:48.128Z,4.80
2018-03-26T22:42:15.667Z,5.23
2018-03-26T22:44:43.250Z,4.83
2018-03-26T22:47:10.775Z,4.70
2018-03-26T22:49:38.330Z,5.57
2018-03-26T22:52:05.871Z,4.87
2018-03-26T22:54:33.444Z,4.80
2018-03-26T22:57:00.970Z,4.67
2018-03-26T22:59:28.499Z,5.00
2018-03-26T23:01:56.046Z,4.73
2018-03-26T23:04:23.694Z,4.87
2018-03-26T23:06:51.243Z,4.77
2018-03-26T23:09:19.798Z,4.27
2018-03-26T23:11:48.120Z,5.23
2018-03-26T23:14:15.657Z,5.00
2018-03-26T23:16:43.212Z,4.87
2018-03-26T23:19:10.737Z,4.40
2018-03-26T23:21:38.297Z,4.27
2018-03-26T23:24:06.626Z,4.70
2018-03-26T23:26:34.201Z,5.27
2018-03-26T23:29:01.742Z,5.97
2018-03-26T23:31:29.306Z,4.57
2018-03-26T23:33:56.879Z,4.73
2018-03-26T23:36:24.430Z,4.50
2018-03-26T23:38:52.003Z,4.37
2018-03-26T23:41:19.539Z,4.70
2018-03-26T23:43:47.109Z,4.57
2018-03-26T23:46:14.642Z,4.80
2018-03-26T23:48:42.962Z,4.60
2018-03-26T23:51:11.256Z,4.53
2018-03-26T23:53:38.815Z,4.43
2018-03-26T23:56:06.359Z,4.13
2018-03-26T23:58:33.919Z,5.30
